Time;durP1;ratioP1;P1;durP2;ratioP2;P2;SDS_P1;SDS_P2;PMS_P1;PMS_P2;Temp;Humidity;BMP_temperature;BMP_pressure;BME280_temperature;BME280_humidity;BME280_pressure;Samples;Min_cycle;Max_cycle;Signal;HPM_P1;HPM_P2
2022/10/11 00:00:52;;;;;;;4.30;0.95;;;15.60;71.10;;;;;;5099478;28;20032;-83
2022/10/11 00:03:17;;;;;;;5.97;1.38;;;15.70;70.90;;;;;;5118586;28;20034;-83
2022/10/11 00:05:43;;;;;;;2.38;1.00;;;15.70;70.80;;;;;;5113951;28;20594;-83
2022/10/11 00:08:10;;;;;;;7.63;1.40;;;15.60;70.80;;;;;;5098285;28;20414;-83
2022/10/11 00:10:36;;;;;;;6.70;1.73;;;15.50;70.80;;;;;;5098169;28;20020;-83
2022/10/11 00:13:02;;;;;;;5.85;1.10;;;15.50;70.60;;;;;;5098395;28;20391;-83
2022/10/11 00:15:28;;;;;;;8.15;1.42;;;15.50;70.50;;;;;;5079252;28;20060;-83
2022/10/11 00:17:53;;;;;;;7.72;1.42;;;15.40;70.70;;;;;;5097858;28;20024;-83
2022/10/11 00:20:19;;;;;;;5.90;1.27;;;15.40;70.80;;;;;;5097938;28;20125;-83
2022/10/11 00:22:45;;;;;;;5.85;1.40;;;15.40;70.80;;;;;;5115140;27;20023;-82
2022/10/11 00:25:11;;;;;;;4.13;1.20;;;15.30;70.80;;;;;;5120329;27;20027;-83
2022/10/11 00:27:37;;;;;;;7.82;1.35;;;15.30;70.90;;;;;;5120461;27;20030;-83
2022/10/11 00:30:05;;;;;;;3.25;1.30;;;15.30;70.90;;;;;;5095733;28;20177;-83
2022/10/11 00:32:33;;;;;;;6.25;1.42;;;15.30;70.80;;;;;;5096169;28;20027;-82
2022/10/11 00:35:05;;;;;;;6.82;1.10;;;15.30;70.80;;;;;;5095988;28;20396;-82
2022/10/11 00:37:32;;;;;;;2.85;1.25;;;15.20;70.90;;;;;;5097566;28;20512;-83
2022/10/11 00:39:58;;;;;;;9.20;1.48;;;15.20;70.80;;;;;;5117861;28;20027;-83
2022/10/11 00:42:24;;;;;;;3.80;1.00;;;15.20;70.80;;;;;;5095983;28;20118;-82
2022/10/11 00:44:50;;;;;;;3.90;1.55;;;15.20;70.80;;;;;;5097332;28;20504;-83
2022/10/11 00:47:19;;;;;;;7.78;1.27;;;15.20;70.70;;;;;;5097250;28;20024;-83
2022/10/11 00:49:59;;;;;;;3.03;1.23;;;15.10;71.00;;;;;;5079298;28;20475;-83
2022/10/11 00:52:39;;;;;;;6.82;1.67;;;15.00;71.00;;;;;;5090601;28;20103;-83
2022/10/11 00:55:20;;;;;;;5.90;1.58;;;15.00;71.00;;;;;;5097323;28;20047;-83
2022/10/11 00:57:48;;;;;;;4.70;1.20;;;15.00;71.00;;;;;;5096975;28;20378;-83
2022/10/11 01:00:15;;;;;;;10.65;1.48;;;14.90;71.20;;;;;;5097174;28;20128;-83
2022/10/11 01:02:41;;;;;;;6.05;1.63;;;14.90;71.00;;;;;;5078749;28;20100;-83
2022/10/11 01:05:15;;;;;;;5.82;1.50;;;14.90;71.30;;;;;;5097205;28;20078;-83
2022/10/11 01:07:41;;;;;;;5.53;1.50;;;14.90;71.20;;;;;;5090446;28;20100;-83
2022/10/11 01:10:07;;;;;;;3.75;1.10;;;14.80;71.10;;;;;;5096984;28;20035;-83
2022/10/11 01:12:40;;;;;;;1.67;0.98;;;14.80;71.10;;;;;;5078625;28;20024;-83
2022/10/11 01:15:11;;;;;;;3.40;0.85;;;14.80;71.00;;;;;;5096509;28;20013;-83
2022/10/11 01:18:16;;;;;;;5.13;1.45;;;14.80;70.80;;;;;;5095338;28;20108;-83
2022/10/11 01:20:56;;;;;;;4.15;1.30;;;14.70;70.90;;;;;;5082189;28;20495;-83
2022/10/11 01:23:37;;;;;;;5.20;1.13;;;14.70;70.90;;;;;;5124527;27;20019;-83
2022/10/11 01:26:22;;;;;;;9.10;1.80;;;14.80;70.80;;;;;;5116013;28;20028;-82
2022/10/11 01:28:57;;;;;;;4.63;1.30;;;14.70;70.80;;;;;;5116405;28;20081;-83
2022/10/11 01:31:39;;;;;;;4.97;1.17;;;14.70;70.70;;;;;;5098489;28;20455;-83
2022/10/11 01:34:21;;;;;;;7.20;1.10;;;14.70;70.90;;;;;;5096564;28;20494;-83
2022/10/11 01:37:09;;;;;;;6.03;1.42;;;14.70;70.80;;;;;;5082711;28;20502;-82
2022/10/11 01:39:44;;;;;;;1.85;0.88;;;14.60;70.70;;;;;;5116071;28;20047;-83
2022/10/11 01:42:12;;;;;;;6.28;1.10;;;14.60;70.80;;;;;;5116976;28;20023;-82
2022/10/11 01:44:40;;;;;;;5.97;1.30;;;14.60;70.70;;;;;;5098147;28;20024;-83
2022/10/11 01:47:06;;;;;;;4.85;1.70;;;14.60;70.90;;;;;;5096414;28;20032;-82
2022/10/11 01:49:32;;;;;;;3.83;1.13;;;14.50;71.00;;;;;;5095998;28;20042;-83
2022/10/11 01:52:06;;;;;;;4.10;1.30;;;14.50;70.90;;;;;;5077897;28;20028;-83
2022/10/11 01:54:59;;;;;;;5.47;1.30;;;14.40;71.10;;;;;;5096391;28;20055;-83
2022/10/11 01:57:49;;;;;;;7.47;1.25;;;14.40;71.00;;;;;;5094690;28;20028;-82
2022/10/11 02:00:30;;;;;;;7.18;1.40;;;14.30;71.10;;;;;;5094937;28;20115;-83
2022/10/11 02:03:03;;;;;;;6.93;1.30;;;14.30;71.20;;;;;;5095703;28;20031;-83
2022/10/11 02:05:39;;;;;;;6.35;1.30;;;14.30;71.10;;;;;;5094086;28;20798;-83
2022/10/11 02:08:32;;;;;;;5.18;0.93;;;14.30;70.80;;;;;;5095874;28;20035;-83
2022/10/11 02:11:25;;;;;;;3.78;1.23;;;14.30;71.00;;;;;;5077644;28;20028;-82
2022/10/11 02:13:59;;;;;;;9.93;1.30;;;14.20;71.00;;;;;;5095870;28;20028;-83
2022/10/11 02:16:33;;;;;;;3.53;1.20;;;14.20;71.00;;;;;;5094605;28;20470;-83
2022/10/11 02:19:02;;;;;;;4.25;1.52;;;14.20;70.80;;;;;;5095870;28;20424;-83
2022/10/11 02:21:28;;;;;;;7.13;1.42;;;14.20;70.80;;;;;;5077606;28;20027;-82
2022/10/11 02:24:00;;;;;;;8.25;1.45;;;14.20;70.80;;;;;;5106014;27;20105;-83
2022/10/11 02:26:31;;;;;;;3.80;1.10;;;14.20;70.80;;;;;;5077534;28;20031;-82
2022/10/11 02:29:00;;;;;;;3.03;1.10;;;14.10;70.90;;;;;;5095639;28;20100;-83
2022/10/11 02:31:29;;;;;;;2.08;0.93;;;14.10;70.80;;;;;;5095560;28;20031;-83
2022/10/11 02:34:00;;;;;;;3.17;1.00;;;14.00;70.80;;;;;;5095834;28;20016;-83
2022/10/11 02:36:41;;;;;;;6.22;1.27;;;14.10;70.90;;;;;;5099114;28;20086;-82
2022/10/11 02:39:13;;;;;;;4.13;1.02;;;14.10;71.00;;;;;;5094418;28;20387;-83
2022/10/11 02:41:42;;;;;;;11.68;1.50;;;14.00;70.90;;;;;;5079442;28;20067;-83
2022/10/11 02:44:22;;;;;;;7.68;1.38;;;14.00;71.00;;;;;;5081789;28;20028;-83
2022/10/11 02:46:49;;;;;;;6.45;1.20;;;14.00;71.20;;;;;;5099495;28;20028;-83
2022/10/11 02:49:21;;;;;;;3.88;1.33;;;13.90;71.10;;;;;;5081670;28;20063;-83
2022/10/11 02:51:47;;;;;;;2.83;1.35;;;13.90;71.10;;;;;;5081389;28;20455;-83
2022/10/11 02:54:12;;;;;;;3.85;1.25;;;13.90;71.10;;;;;;5099685;28;20079;-83
2022/10/11 02:56:38;;;;;;;8.20;1.20;;;13.90;71.20;;;;;;5081241;28;20024;-83
2022/10/11 02:59:04;;;;;;;6.22;1.50;;;13.90;71.10;;;;;;5080825;28;20032;-83
2022/10/11 03:01:29;;;;;;;6.30;1.48;;;13.80;71.20;;;;;;5081172;28;20089;-83
2022/10/11 03:03:55;;;;;;;5.00;1.38;;;13.80;71.00;;;;;;5081161;28;20054;-83
2022/10/11 03:06:21;;;;;;;3.67;1.42;;;13.80;71.00;;;;;;5081370;28;20053;-82
2022/10/11 03:08:46;;;;;;;2.38;1.00;;;13.80;71.00;;;;;;5099449;28;20028;-83
2022/10/11 03:11:12;;;;;;;4.68;1.15;;;13.80;70.90;;;;;;5080979;28;20608;-83
2022/10/11 03:13:37;;;;;;;3.38;1.10;;;13.80;71.00;;;;;;5081224;28;20028;-83
2022/10/11 03:16:03;;;;;;;2.28;1.20;;;13.80;70.90;;;;;;5099316;28;20568;-83
2022/10/11 03:18:29;;;;;;;2.22;0.88;;;13.80;70.90;;;;;;5080658;28;20035;-83
2022/10/11 03:20:55;;;;;;;3.35;1.27;;;13.80;70.80;;;;;;5098930;28;20043;-83
2022/10/11 03:23:21;;;;;;;3.05;1.30;;;13.80;70.70;;;;;;5126378;27;20478;-83
2022/10/11 03:25:47;;;;;;;4.28;1.10;;;13.70;71.00;;;;;;5140172;27;20092;-82
2022/10/11 03:28:12;;;;;;;4.35;1.15;;;13.70;70.80;;;;;;5140187;27;20061;-83
2022/10/11 03:30:38;;;;;;;3.72;1.17;;;13.60;70.80;;;;;;5121645;27;20448;-83
2022/10/11 03:33:04;;;;;;;3.72;1.30;;;13.60;70.90;;;;;;5097782;28;20402;-83
2022/10/11 03:35:29;;;;;;;6.30;0.98;;;13.50;71.10;;;;;;5098595;28;20027;-82
2022/10/11 03:37:55;;;;;;;9.60;1.40;;;13.50;71.40;;;;;;5097207;28;20064;-83
2022/10/11 03:40:20;;;;;;;7.93;1.92;;;13.40;71.60;;;;;;5098603;28;20039;-82
2022/10/11 03:42:46;;;;;;;3.40;1.10;;;13.40;71.70;;;;;;5098508;28;20032;-82
2022/10/11 03:45:12;;;;;;;3.97;1.40;;;13.30;71.70;;;;;;5097337;28;20028;-83
2022/10/11 03:47:38;;;;;;;3.50;1.40;;;13.30;71.80;;;;;;5098078;28;20054;-83
2022/10/11 03:50:06;;;;;;;6.10;1.83;;;13.30;71.80;;;;;;5098352;28;20049;-82
2022/10/11 03:52:32;;;;;;;3.28;1.20;;;13.30;71.50;;;;;;5098111;28;20024;-83
2022/10/11 03:54:57;;;;;;;3.53;1.40;;;13.30;71.50;;;;;;5098210;28;20213;-84
2022/10/11 03:57:26;;;;;;;1.77;1.08;;;13.30;71.60;;;;;;5097969;28;20028;-82
2022/10/11 03:59:51;;;;;;;6.22;1.70;;;13.30;71.60;;;;;;5097273;28;20032;-82
2022/10/11 04:02:17;;;;;;;2.47;1.35;;;13.30;71.70;;;;;;5097984;28;20032;-82
2022/10/11 04:04:44;;;;;;;4.78;1.17;;;13.30;71.40;;;;;;5080151;28;20107;-82
2022/10/11 04:07:10;;;;;;;4.60;1.40;;;13.20;71.60;;;;;;5080357;28;20046;-83
2022/10/11 04:09:36;;;;;;;5.30;1.63;;;13.20;71.80;;;;;;5088390;28;20483;-82
2022/10/11 04:12:02;;;;;;;3.33;1.13;;;13.20;71.70;;;;;;5096642;28;20042;-82
2022/10/11 04:14:31;;;;;;;5.03;1.63;;;13.20;71.70;;;;;;5099214;28;20031;-83
2022/10/11 04:16:56;;;;;;;3.78;1.25;;;13.20;71.70;;;;;;5099743;28;20499;-82
2022/10/11 04:19:22;;;;;;;2.45;1.20;;;13.10;71.60;;;;;;5118093;28;20028;-80
2022/10/11 04:21:48;;;;;;;6.40;1.65;;;13.10;71.60;;;;;;5106516;27;20028;-82
2022/10/11 04:24:14;;;;;;;7.20;2.00;;;13.10;71.70;;;;;;5138447;27;20489;-83
2022/10/11 04:26:39;;;;;;;3.38;1.33;;;13.10;71.60;;;;;;5138743;27;20019;-83
2022/10/11 04:29:05;;;;;;;5.55;0.90;;;13.10;71.40;;;;;;5119794;27;20034;-83
2022/10/11 04:31:43;;;;;;;;;;;;;;;;;;;;;
2022/10/11 04:34:09;;;;;;;4.97;1.10;;;13.10;71.30;;;;;;5118216;28;20015;-82
2022/10/11 04:36:34;;;;;;;2.80;1.40;;;13.00;71.40;;;;;;5103287;28;20090;-79
2022/10/11 04:39:00;;;;;;;6.28;1.35;;;12.90;71.70;;;;;;5097624;28;20112;-80
2022/10/11 04:41:28;;;;;;;2.13;1.00;;;12.90;71.80;;;;;;5097146;28;20372;-79
2022/10/11 04:43:53;;;;;;;3.08;1.23;;;12.90;71.70;;;;;;5099886;28;20024;-79
2022/10/11 04:46:19;;;;;;;5.18;1.50;;;12.90;71.80;;;;;;5100180;28;20045;-79
2022/10/11 04:48:45;;;;;;;1.88;1.00;;;12.90;71.90;;;;;;5078969;28;20103;-78
2022/10/11 04:51:10;;;;;;;2.83;1.23;;;12.80;72.00;;;;;;5096918;28;20058;-78
2022/10/11 04:53:36;;;;;;;3.33;1.70;;;12.80;72.00;;;;;;5096744;28;20028;-78
2022/10/11 04:56:06;;;;;;;4.03;1.23;;;12.80;72.10;;;;;;5097170;28;20071;-79
2022/10/11 04:58:33;;;;;;;2.73;1.30;;;12.80;72.10;;;;;;5078993;28;20118;-78
2022/10/11 05:00:58;;;;;;;5.25;1.52;;;12.80;72.00;;;;;;5079854;28;20668;-82
2022/10/11 05:03:25;;;;;;;2.03;1.23;;;12.70;71.90;;;;;;5101190;28;20036;-82
2022/10/11 05:05:51;;;;;;;1.75;1.10;;;12.70;72.10;;;;;;5112611;28;20094;-80
2022/10/11 05:08:18;;;;;;;3.00;1.90;;;12.60;72.10;;;;;;5092710;28;20038;-80
2022/10/11 05:10:55;;;;;;;9.13;1.65;;;12.60;72.10;;;;;;5113339;28;20035;-81
2022/10/11 05:13:21;;;;;;;6.50;1.77;;;12.60;72.20;;;;;;5098199;28;20032;-82
2022/10/11 05:15:47;;;;;;;3.35;1.85;;;12.60;72.20;;;;;;5108006;28;20012;-84
2022/10/11 05:18:13;;;;;;;4.30;1.50;;;12.60;72.00;;;;;;5080884;28;20039;-82
2022/10/11 05:20:39;;;;;;;5.03;1.73;;;12.60;71.90;;;;;;5109295;28;20027;-83
2022/10/11 05:23:07;;;;;;;7.20;1.40;;;12.60;71.90;;;;;;5109192;27;20031;-83
2022/10/11 05:25:34;;;;;;;2.03;1.10;;;12.60;71.90;;;;;;5096605;28;20099;-84
2022/10/11 05:27:59;;;;;;;2.20;1.20;;;12.50;71.90;;;;;;5111533;28;20820;-84
2022/10/11 05:30:25;;;;;;;6.45;1.25;;;12.50;71.80;;;;;;5098776;28;20031;-84
2022/10/11 05:32:51;;;;;;;4.30;1.15;;;12.50;71.90;;;;;;5094368;28;20020;-84
2022/10/11 05:35:16;;;;;;;4.53;1.02;;;12.50;71.80;;;;;;5099248;28;20031;-84
2022/10/11 05:37:42;;;;;;;2.50;0.88;;;12.50;71.60;;;;;;5094867;28;20042;-84
2022/10/11 05:40:09;;;;;;;3.47;1.20;;;12.40;71.70;;;;;;5098375;28;20016;-84
2022/10/11 05:42:35;;;;;;;6.57;1.35;;;12.50;71.70;;;;;;5101816;28;20035;-84
2022/10/11 05:45:01;;;;;;;3.42;1.20;;;12.40;71.60;;;;;;5116204;28;20032;-84
2022/10/11 05:47:27;;;;;;;14.77;1.77;;;12.40;71.50;;;;;;5119332;28;20066;-83
2022/10/11 05:49:54;;;;;;;5.95;2.90;;;12.40;71.60;;;;;;5116582;28;20059;-84
2022/10/11 05:52:20;;;;;;;8.25;3.13;;;12.40;71.60;;;;;;5103896;28;20032;-84
2022/10/11 05:54:46;;;;;;;5.97;2.95;;;12.30;71.70;;;;;;5096012;28;20024;-84
2022/10/11 05:57:12;;;;;;;5.43;1.95;;;12.30;71.70;;;;;;5098898;28;20022;-83
2022/10/11 05:59:38;;;;;;;2.58;1.55;;;12.30;71.80;;;;;;5096840;28;20111;-84
2022/10/11 06:02:04;;;;;;;6.55;1.67;;;12.30;71.80;;;;;;5077790;28;20078;-84
2022/10/11 06:04:30;;;;;;;9.75;1.65;;;12.20;71.80;;;;;;5081326;28;20491;-83
2022/10/11 06:06:55;;;;;;;2.53;1.20;;;12.20;71.90;;;;;;5096264;28;20036;-84
2022/10/11 06:09:21;;;;;;;4.10;2.42;;;12.20;71.90;;;;;;5098734;28;20030;-84
2022/10/11 06:11:47;;;;;;;4.15;1.70;;;12.20;71.80;;;;;;5091938;28;20019;-84
2022/10/11 06:14:12;;;;;;;1.83;1.27;;;12.20;71.70;;;;;;5099974;28;20024;-84
2022/10/11 06:16:38;;;;;;;3.35;1.80;;;12.20;71.70;;;;;;5097246;28;20077;-84
2022/10/11 06:19:04;;;;;;;3.17;1.20;;;12.20;71.70;;;;;;5095957;28;20028;-84
2022/10/11 06:21:30;;;;;;;6.50;1.50;;;12.20;71.60;;;;;;5099195;28;20016;-84
2022/10/11 06:23:55;;;;;;;5.63;1.73;;;12.20;71.80;;;;;;5133204;27;20034;-84
2022/10/11 06:26:21;;;;;;;6.72;1.63;;;12.20;71.60;;;;;;5140093;27;20015;-85
2022/10/11 06:28:47;;;;;;;5.57;1.65;;;12.20;71.50;;;;;;5095943;28;20036;-84
2022/10/11 06:31:14;;;;;;;8.43;2.95;;;12.30;71.50;;;;;;5079270;28;20031;-83
2022/10/11 06:33:40;;;;;;;7.32;3.05;;;12.30;71.50;;;;;;5096915;28;20012;-84
2022/10/11 06:36:11;;;;;;;9.25;2.20;;;12.30;71.60;;;;;;5095531;28;20027;-85
2022/10/11 06:38:37;;;;;;;5.32;1.77;;;12.30;71.70;;;;;;5080437;28;20028;-85
2022/10/11 06:41:16;;;;;;;2.63;1.50;;;12.30;71.70;;;;;;5077766;28;20038;-85
2022/10/11 06:43:42;;;;;;;5.18;1.48;;;12.30;71.40;;;;;;5096812;28;20030;-85
2022/10/11 06:46:08;;;;;;;2.28;1.20;;;12.30;71.50;;;;;;5077526;28;20160;-84
2022/10/11 06:48:37;;;;;;;4.22;1.30;;;12.40;71.40;;;;;;5095345;28;20036;-84
2022/10/11 06:51:03;;;;;;;4.57;1.30;;;12.40;71.50;;;;;;5097710;28;20487;-84
2022/10/11 06:53:29;;;;;;;4.25;1.48;;;12.50;71.50;;;;;;5115974;28;20031;-84
2022/10/11 06:56:07;;;;;;;4.95;1.35;;;12.50;71.50;;;;;;5116154;28;20023;-84
2022/10/11 06:58:33;;;;;;;3.20;1.30;;;12.60;71.50;;;;;;5114574;28;20035;-83
2022/10/11 07:01:00;;;;;;;6.25;1.65;;;12.60;71.60;;;;;;5095764;28;20038;-84
2022/10/11 07:03:27;;;;;;;5.28;1.20;;;12.60;71.60;;;;;;5095740;28;20052;-85
2022/10/11 07:05:52;;;;;;;2.92;1.38;;;12.70;71.50;;;;;;5081834;28;20028;-84
2022/10/11 07:08:18;;;;;;;5.55;1.60;;;12.70;71.60;;;;;;5095869;28;20027;-83
2022/10/11 07:10:44;;;;;;;7.85;1.75;;;12.70;71.60;;;;;;5100407;28;20027;-84
2022/10/11 07:13:09;;;;;;;5.25;1.40;;;12.70;71.80;;;;;;5103178;28;20499;-84
2022/10/11 07:15:40;;;;;;;3.80;1.33;;;12.80;71.60;;;;;;5095424;28;20456;-84
2022/10/11 07:18:06;;;;;;;;;;;12.80;71.50;;;;;;5077612;28;20020;-83
2022/10/11 07:20:31;;;;;;;8.75;2.00;;;12.80;71.40;;;;;;5094003;28;19968;-84
2022/10/11 07:22:57;;;;;;;5.10;2.00;;;12.90;71.50;;;;;;5116438;28;20023;-83
2022/10/11 07:25:23;;;;;;;3.40;1.42;;;12.90;71.30;;;;;;5117682;28;20549;-83
2022/10/11 07:27:48;;;;;;;5.35;2.28;;;12.90;71.30;;;;;;5105860;27;20103;-83
2022/10/11 07:30:14;;;;;;;5.85;2.47;;;13.00;71.40;;;;;;5098934;28;20097;-84
2022/10/11 07:32:40;;;;;;;5.43;2.13;;;13.00;71.30;;;;;;5099062;28;20434;-83
2022/10/11 07:35:05;;;;;;;5.85;2.63;;;13.00;71.20;;;;;;5098830;28;20057;-83
2022/10/11 07:37:32;;;;;;;8.70;2.72;;;13.00;71.60;;;;;;5098885;28;20040;-84
2022/10/11 07:39:58;;;;;;;3.50;1.63;;;13.00;71.80;;;;;;5094942;28;20035;-84
2022/10/11 07:42:24;;;;;;;4.63;1.75;;;13.00;72.00;;;;;;5119301;28;20645;-84
2022/10/11 07:44:49;;;;;;;3.17;1.60;;;13.00;71.80;;;;;;5119293;28;20034;-85
2022/10/11 07:47:15;;;;;;;5.32;1.50;;;13.00;71.90;;;;;;5119373;28;20103;-84
2022/10/11 07:49:41;;;;;;;4.82;1.90;;;13.00;72.00;;;;;;5099559;28;20503;-84
2022/10/11 07:52:06;;;;;;;3.78;1.25;;;13.10;71.90;;;;;;5081053;28;20376;-84
2022/10/11 07:54:32;;;;;;;5.05;1.70;;;13.10;71.90;;;;;;5090785;28;20024;-84
2022/10/11 07:56:58;;;;;;;2.45;1.40;;;13.10;72.00;;;;;;5098594;28;20089;-83
2022/10/11 07:59:24;;;;;;;5.45;1.27;;;13.20;71.90;;;;;;5098456;28;20020;-83
2022/10/11 08:01:49;;;;;;;7.80;1.58;;;13.20;71.80;;;;;;5098655;28;20032;-83
2022/10/11 08:04:15;;;;;;;3.60;1.55;;;13.20;71.90;;;;;;5080485;28;20471;-84
2022/10/11 08:06:41;;;;;;;4.30;1.38;;;13.30;71.90;;;;;;5098761;28;20038;-84
2022/10/11 08:09:07;;;;;;;7.55;1.27;;;13.30;71.90;;;;;;5098310;28;20027;-83
2022/10/11 08:11:35;;;;;;;7.55;1.58;;;13.30;71.70;;;;;;5109082;28;20028;-83
2022/10/11 08:14:04;;;;;;;7.65;1.50;;;13.30;71.50;;;;;;5098414;28;20035;-83
2022/10/11 08:16:29;;;;;;;6.03;1.73;;;13.40;71.40;;;;;;5098176;28;20102;-83
2022/10/11 08:18:55;;;;;;;4.15;1.60;;;13.40;71.60;;;;;;5080202;28;20044;-83
2022/10/11 08:21:21;;;;;;;5.07;1.70;;;13.50;71.50;;;;;;5079879;28;20103;-84
2022/10/11 08:23:47;;;;;;;6.95;2.45;;;13.50;71.30;;;;;;5133105;27;20043;-84
2022/10/11 08:26:13;;;;;;;4.97;1.92;;;13.60;71.10;;;;;;5139094;27;20008;-83
2022/10/11 08:28:39;;;;;;;3.40;2.20;;;13.70;71.10;;;;;;5122135;27;20023;-84
2022/10/11 08:31:05;;;;;;;4.55;1.52;;;14.20;70.40;;;;;;5097736;28;20456;-84
2022/10/11 08:33:31;;;;;;;5.47;1.58;;;14.70;68.60;;;;;;5098250;28;20107;-84
2022/10/11 08:35:57;;;;;;;4.82;1.75;;;14.90;67.90;;;;;;5097599;28;20067;-85
2022/10/11 08:38:23;;;;;;;4.05;1.73;;;14.80;67.70;;;;;;5096812;28;20039;-84
2022/10/11 08:40:58;;;;;;;5.18;1.48;;;14.70;68.10;;;;;;5097545;28;20024;-84
2022/10/11 08:43:49;;;;;;;5.40;1.90;;;14.60;68.60;;;;;;5109138;28;20046;-83
2022/10/11 08:46:15;;;;;;;3.97;1.35;;;14.40;68.80;;;;;;5096885;28;20035;-82
2022/10/11 08:48:45;;;;;;;6.85;1.67;;;14.40;69.30;;;;;;5097806;28;20047;-84
2022/10/11 08:51:24;;;;;;;4.65;1.60;;;14.40;69.40;;;;;;5097624;28;20032;-83
2022/10/11 08:54:01;;;;;;;4.28;1.38;;;14.40;69.30;;;;;;5097371;28;20039;-83
2022/10/11 08:56:29;;;;;;;2.63;1.52;;;14.40;69.00;;;;;;5097405;28;20076;-82
2022/10/11 08:59:03;;;;;;;2.92;1.40;;;14.40;69.50;;;;;;5079284;28;20024;-83
2022/10/11 09:01:30;;;;;;;2.05;1.33;;;14.40;69.30;;;;;;5097736;28;20058;-84
2022/10/11 09:03:58;;;;;;;4.43;1.77;;;14.40;69.20;;;;;;5097325;28;20039;-83
2022/10/11 09:07:10;;;;;;;6.45;2.08;;;14.40;69.30;;;;;;5079758;28;20032;-83
2022/10/11 09:10:09;;;;;;;4.93;1.00;;;14.50;69.40;;;;;;5034385;28;20037;-83
2022/10/11 09:12:53;;;;;;;5.63;1.85;;;14.60;69.60;;;;;;5097434;28;20024;-82
2022/10/11 09:15:49;;;;;;;5.82;1.60;;;14.60;69.50;;;;;;5097100;28;20099;-82
2022/10/11 09:18:33;;;;;;;2.70;1.05;;;14.70;69.20;;;;;;5096933;28;20029;-82
2022/10/11 09:21:23;;;;;;;5.32;1.25;;;14.70;68.70;;;;;;5097051;28;20086;-83
2022/10/11 09:24:15;;;;;;;5.18;1.50;;;14.70;68.70;;;;;;5132679;27;20394;-83
2022/10/11 09:27:00;;;;;;;3.60;1.55;;;14.80;68.90;;;;;;5117049;28;20035;-82
2022/10/11 09:29:44;;;;;;;3.63;1.48;;;14.80;69.20;;;;;;5095547;28;20035;-84
2022/10/11 09:32:16;;;;;;;5.60;1.25;;;14.90;69.20;;;;;;5113208;28;20040;-84
2022/10/11 09:34:42;;;;;;;5.20;1.58;;;14.90;69.60;;;;;;5102304;28;20062;-83
2022/10/11 09:37:25;;;;;;;5.25;1.58;;;15.00;68.90;;;;;;5096621;28;20511;-83
2022/10/11 09:40:00;;;;;;;5.18;1.55;;;15.10;69.10;;;;;;5096936;28;20369;-84
2022/10/11 09:42:25;;;;;;;4.95;1.48;;;15.10;69.20;;;;;;5096581;28;20028;-84
2022/10/11 09:44:51;;;;;;;6.97;2.20;;;15.10;68.70;;;;;;5096846;28;20077;-84
2022/10/11 09:47:20;;;;;;;6.60;1.95;;;15.20;68.90;;;;;;5096121;28;20028;-84
2022/10/11 09:50:02;;;;;;;3.60;1.00;;;15.20;68.50;;;;;;5096083;28;20027;-84
2022/10/11 09:52:28;;;;;;;7.20;1.50;;;15.30;68.70;;;;;;5096499;28;20020;-84
2022/10/11 09:54:57;;;;;;;4.82;1.55;;;15.30;68.70;;;;;;5096347;28;20043;-83
2022/10/11 09:57:36;;;;;;;5.10;2.05;;;15.40;68.60;;;;;;5096154;28;20047;-83
2022/10/11 10:00:22;;;;;;;4.63;1.20;;;15.40;68.40;;;;;;5078148;28;20032;-83
2022/10/11 10:02:52;;;;;;;5.00;1.45;;;15.50;68.40;;;;;;5095884;28;20028;-83
2022/10/11 10:05:21;;;;;;;4.97;1.40;;;15.60;68.60;;;;;;5116572;28;20027;-84
2022/10/11 10:08:04;;;;;;;4.78;1.42;;;15.70;68.20;;;;;;5116903;28;20414;-83
2022/10/11 10:10:37;;;;;;;3.65;1.60;;;15.70;68.60;;;;;;5098158;28;20031;-84
2022/10/11 10:13:17;;;;;;;3.75;1.10;;;15.80;67.50;;;;;;5098252;28;20147;-83
2022/10/11 10:15:46;;;;;;;6.47;1.90;;;15.70;67.50;;;;;;5094510;28;20020;-83
2022/10/11 10:18:23;;;;;;;5.80;1.77;;;15.80;67.50;;;;;;5095930;28;20035;-83
2022/10/11 10:20:58;;;;;;;4.45;1.35;;;15.80;67.40;;;;;;5096226;28;20024;-84
2022/10/11 10:23:30;;;;;;;5.40;1.40;;;15.90;66.90;;;;;;5122692;27;20055;-82
2022/10/11 10:26:19;;;;;;;3.20;1.27;;;15.90;67.50;;;;;;5078036;28;20029;-82
2022/10/11 10:29:07;;;;;;;3.85;1.50;;;16.00;67.50;;;;;;5096681;28;20028;-82
2022/10/11 10:31:39;;;;;;;5.68;1.65;;;16.10;67.70;;;;;;5104150;28;20448;-81
2022/10/11 10:34:19;;;;;;;3.72;1.60;;;16.20;67.00;;;;;;5116159;28;20028;-82
2022/10/11 10:36:52;;;;;;;5.97;1.52;;;16.30;66.90;;;;;;5116296;28;20471;-82
2022/10/11 10:39:32;;;;;;;4.70;1.63;;;16.30;66.50;;;;;;5104871;28;20055;-82
2022/10/11 10:42:13;;;;;;;4.93;1.52;;;16.40;66.20;;;;;;5095667;28;20039;-80
2022/10/11 10:44:39;;;;;;;4.65;1.50;;;16.40;66.50;;;;;;5095944;28;20387;-82
2022/10/11 10:47:31;;;;;;;5.40;2.20;;;16.50;65.90;;;;;;5097792;28;20046;-82
2022/10/11 10:50:07;;;;;;;6.20;2.17;;;16.60;66.70;;;;;;5095683;28;20395;-83
2022/10/11 10:53:01;;;;;;;7.35;2.38;;;16.70;66.20;;;;;;5095483;28;20016;-82
2022/10/11 10:55:36;;;;;;;4.38;1.38;;;16.80;66.60;;;;;;5095617;28;20103;-82
2022/10/11 10:58:34;;;;;;;4.53;1.60;;;16.80;65.70;;;;;;5077560;28;20518;-82
2022/10/11 11:01:13;;;;;;;3.40;1.88;;;16.90;65.60;;;;;;5069715;28;20040;-82
2022/10/11 11:03:47;;;;;;;8.90;1.70;;;17.00;64.70;;;;;;5119277;28;20050;-82
2022/10/11 11:06:45;;;;;;;5.63;1.70;;;17.10;64.90;;;;;;5099809;28;20108;-82
2022/10/11 11:09:35;;;;;;;3.80;1.30;;;17.20;64.70;;;;;;5099531;28;20108;-82
2022/10/11 11:12:30;;;;;;;3.33;1.65;;;17.40;64.70;;;;;;5115317;28;20027;-83
2022/10/11 11:15:34;;;;;;;5.20;1.50;;;17.40;63.50;;;;;;5103682;28;20119;-82
2022/10/11 11:18:20;;;;;;;6.60;1.70;;;17.60;64.00;;;;;;5025141;28;20508;-83
2022/10/11 11:20:57;;;;;;;4.13;1.38;;;17.60;63.20;;;;;;5036794;28;20026;-83
2022/10/11 11:23:46;;;;;;;5.70;1.80;;;17.70;63.80;;;;;;5102231;27;20032;-81
2022/10/11 11:26:29;;;;;;;3.90;1.17;;;17.70;63.50;;;;;;5091233;28;20076;-83
2022/10/11 11:29:27;;;;;;;6.40;1.60;;;17.70;64.20;;;;;;5101324;28;20024;-82
2022/10/11 11:32:18;;;;;;;3.75;1.90;;;17.70;64.10;;;;;;5119610;28;20108;-82
2022/10/11 11:34:50;;;;;;;;;;;17.50;63.80;;;;;;5119958;28;20028;-83
2022/10/11 11:37:22;;;;;;;3.97;1.65;;;17.50;63.50;;;;;;5098643;28;19933;-82
2022/10/11 11:40:03;;;;;;;6.10;2.08;;;17.60;64.00;;;;;;5099023;28;20020;-83
2022/10/11 11:42:46;;;;;;;4.03;1.85;;;17.60;63.70;;;;;;5098747;28;20083;-82
2022/10/11 11:45:21;;;;;;;6.15;1.70;;;17.60;63.30;;;;;;5080815;28;20028;-82
2022/10/11 11:47:57;;;;;;;4.88;1.70;;;17.60;64.20;;;;;;5080620;28;20507;-83
2022/10/11 11:50:25;;;;;;;3.47;1.65;;;17.70;63.90;;;;;;5098684;28;20028;-82
2022/10/11 11:53:04;;;;;;;6.75;2.45;;;17.70;64.40;;;;;;5080454;28;20090;-82
2022/10/11 11:55:48;;;;;;;3.95;2.13;;;17.70;63.60;;;;;;5098605;28;20024;-81
2022/10/11 11:58:34;;;;;;;5.18;1.80;;;17.80;63.20;;;;;;5098732;28;20616;-81
2022/10/11 12:01:21;;;;;;;4.22;2.28;;;17.80;63.40;;;;;;5097166;28;20024;-81
2022/10/11 12:03:51;;;;;;;8.57;2.83;;;17.80;63.00;;;;;;5098560;28;20040;-82
2022/10/11 12:06:19;;;;;;;4.60;1.70;;;17.80;63.40;;;;;;5098447;28;20514;-82
2022/10/11 12:08:56;;;;;;;6.93;2.10;;;17.80;63.70;;;;;;5098399;28;20040;-81
2022/10/11 12:11:46;;;;;;;9.75;2.80;;;17.90;63.80;;;;;;5079872;28;20020;-82
2022/10/11 12:14:33;;;;;;;3.72;1.65;;;17.90;63.40;;;;;;5079051;28;20655;-81
2022/10/11 12:17:14;;;;;;;7.28;2.50;;;18.00;63.90;;;;;;5098173;28;20030;-81
2022/10/11 12:19:56;;;;;;;7.43;2.13;;;18.00;63.50;;;;;;5098308;28;20024;-82
2022/10/11 12:22:27;;;;;;;6.65;2.05;;;18.10;63.80;;;;;;5108965;27;20331;-82
2022/10/11 12:25:00;;;;;;;4.82;2.55;;;18.20;64.00;;;;;;5139299;27;20027;-82
2022/10/11 12:27:45;;;;;;;7.72;2.50;;;18.20;63.60;;;;;;5139093;27;20023;-82
2022/10/11 12:30:49;;;;;;;7.00;2.08;;;18.30;63.90;;;;;;5110185;28;20459;-82
2022/10/11 12:33:52;;;;;;;6.60;2.47;;;18.30;63.80;;;;;;5099826;28;20394;-82
2022/10/11 12:36:28;;;;;;;4.95;2.42;;;18.30;63.20;;;;;;5079698;28;20518;-83
2022/10/11 12:39:19;;;;;;;7.82;2.60;;;18.30;62.30;;;;;;5098083;28;20016;-83
2022/10/11 12:41:50;;;;;;;8.88;2.47;;;18.40;63.20;;;;;;5097820;28;20035;-82
2022/10/11 12:44:25;;;;;;;5.47;2.38;;;18.40;62.80;;;;;;5098123;28;20376;-82
2022/10/11 12:46:54;;;;;;;4.43;2.28;;;18.50;63.50;;;;;;5097857;28;20032;-82
2022/10/11 12:49:26;;;;;;;4.95;2.25;;;18.60;63.00;;;;;;5097504;28;20030;-82
2022/10/11 12:52:01;;;;;;;8.45;3.42;;;18.60;63.00;;;;;;5097780;28;20020;-82
2022/10/11 12:54:35;;;;;;;4.47;1.92;;;18.60;62.90;;;;;;5079491;28;20028;-83
2022/10/11 12:57:07;;;;;;;7.82;2.15;;;18.70;63.20;;;;;;5097818;28;20024;-82
2022/10/11 12:59:33;;;;;;;7.25;2.38;;;18.70;62.60;;;;;;5079475;28;20057;-82
2022/10/11 13:01:59;;;;;;;5.60;2.38;;;18.80;62.50;;;;;;5097692;28;20028;-82
2022/10/11 13:04:31;;;;;;;6.45;2.78;;;18.90;62.10;;;;;;5097264;28;20493;-83
2022/10/11 13:07:12;;;;;;;6.50;2.05;;;18.90;62.30;;;;;;5083292;28;20035;-83
2022/10/11 13:09:39;;;;;;;6.25;2.28;;;18.90;62.00;;;;;;5097158;28;20073;-83
2022/10/11 13:12:12;;;;;;;8.40;2.63;;;19.00;61.90;;;;;;5107325;28;20016;-83